Time;durP1;ratioP1;P1;durP2;ratioP2;P2;SDS_P1;SDS_P2;PMS_P1;PMS_P2;Temp;Humidity;BMP_temperature;BMP_pressure;BME280_temperature;BME280_humidity;BME280_pressure;Samples;Min_cycle;Max_cycle;Signal;HPM_P1;HPM_P2
2021/03/15 00:00:57;;;;;;;2.57;2.37;;;6.40;78.40;;;;;;5024757;28;20837;-41
2021/03/15 00:03:26;;;;;;;3.90;2.73;;;6.40;78.40;;;;;;5026583;28;20459;-41
2021/03/15 00:05:57;;;;;;;3.27;2.20;;;6.30;78.80;;;;;;5026216;28;20456;-41
2021/03/15 00:08:27;;;;;;;6.33;2.47;;;6.30;79.10;;;;;;5028557;28;20518;-42
2021/03/15 00:10:54;;;;;;;6.63;2.87;;;6.30;79.10;;;;;;4994018;28;20456;-42
2021/03/15 00:13:21;;;;;;;5.13;3.10;;;6.30;79.30;;;;;;5020353;28;20489;-41
2021/03/15 00:15:51;;;;;;;5.50;2.90;;;6.30;79.50;;;;;;5026678;28;20461;-41
2021/03/15 00:18:18;;;;;;;7.50;2.97;;;6.30;79.20;;;;;;5026694;28;20509;-41
2021/03/15 00:20:45;;;;;;;5.53;2.57;;;6.30;79.30;;;;;;5013604;28;20447;-41
2021/03/15 00:23:13;;;;;;;5.77;3.07;;;6.30;79.50;;;;;;5009168;28;20459;-41
2021/03/15 00:25:46;;;;;;;4.30;2.30;;;6.30;79.20;;;;;;5025643;28;20456;-41
2021/03/15 00:28:12;;;;;;;3.07;2.50;;;6.30;79.10;;;;;;5021637;28;20550;-41
2021/03/15 00:30:42;;;;;;;3.50;2.90;;;6.30;79.10;;;;;;5010194;28;20958;-41
2021/03/15 00:33:08;;;;;;;3.03;2.53;;;6.30;79.40;;;;;;5035270;28;20554;-41
2021/03/15 00:35:36;;;;;;;3.03;2.70;;;6.30;79.10;;;;;;5024877;28;20551;-41
2021/03/15 00:38:03;;;;;;;5.10;3.13;;;6.20;79.40;;;;;;5027838;28;21067;-42
2021/03/15 00:40:29;;;;;;;4.63;2.57;;;6.20;79.50;;;;;;5009737;28;20523;-41
2021/03/15 00:42:56;;;;;;;6.03;2.77;;;6.10;79.60;;;;;;5027312;28;20928;-41
2021/03/15 00:45:25;;;;;;;3.97;2.93;;;6.10;79.50;;;;;;5027744;28;20541;-41
2021/03/15 00:47:52;;;;;;;5.10;3.90;;;6.10;79.50;;;;;;5024041;28;20451;-41
2021/03/15 00:50:31;;;;;;;6.13;3.87;;;6.10;79.70;;;;;;5025693;28;20459;-41
2021/03/15 00:52:57;;;;;;;7.27;4.77;;;6.10;79.90;;;;;;5025035;28;20530;-41
2021/03/15 00:55:27;;;;;;;5.40;4.10;;;6.10;79.90;;;;;;5025707;28;20463;-42
2021/03/15 00:57:54;;;;;;;4.93;3.37;;;6.00;80.20;;;;;;5027307;28;20467;-41
2021/03/15 01:00:45;;;;;;;5.90;3.77;;;6.00;80.30;;;;;;5002787;28;20569;-40
2021/03/15 01:03:12;;;;;;;7.27;3.13;;;6.10;80.20;;;;;;5026646;28;20460;-42
2021/03/15 01:05:47;;;;;;;6.37;4.30;;;6.10;79.70;;;;;;5006291;28;20945;-41
2021/03/15 01:08:14;;;;;;;4.33;3.13;;;6.10;79.90;;;;;;5026844;28;20494;-41
2021/03/15 01:10:42;;;;;;;5.20;3.47;;;6.10;79.80;;;;;;5008383;28;20532;-41
2021/03/15 01:13:09;;;;;;;6.70;3.73;;;6.10;79.70;;;;;;5024184;28;20467;-41
2021/03/15 01:15:38;;;;;;;3.50;3.07;;;6.00;79.70;;;;;;5025681;28;20535;-41
2021/03/15 01:18:12;;;;;;;6.20;4.10;;;6.00;80.00;;;;;;5025290;28;20955;-41
2021/03/15 01:20:38;;;;;;;3.53;2.97;;;6.00;80.30;;;;;;5003162;28;20522;-41
2021/03/15 01:23:05;;;;;;;5.83;3.90;;;6.00;80.20;;;;;;5025682;28;20460;-41
2021/03/15 01:25:43;;;;;;;4.87;3.73;;;6.00;80.10;;;;;;5007541;28;20647;-41
2021/03/15 01:28:16;;;;;;;4.20;3.70;;;5.90;80.20;;;;;;5027450;28;20455;-41
2021/03/15 01:30:44;;;;;;;3.37;3.07;;;5.90;80.40;;;;;;5007885;28;21022;-41
2021/03/15 01:33:11;;;;;;;5.40;3.40;;;5.90;80.70;;;;;;5006658;28;20451;-41
2021/03/15 01:35:38;;;;;;;3.10;2.67;;;5.90;80.00;;;;;;5022517;28;20463;-41
2021/03/15 01:38:13;;;;;;;4.40;3.07;;;6.00;79.90;;;;;;5026518;28;20521;-41
2021/03/15 01:40:41;;;;;;;4.40;3.30;;;6.00;79.50;;;;;;5026538;28;20550;-42
2021/03/15 01:43:08;;;;;;;4.03;3.30;;;6.00;79.90;;;;;;5005050;28;20817;-41
2021/03/15 01:45:35;;;;;;;3.83;2.93;;;6.00;79.70;;;;;;5020052;28;20881;-42
2021/03/15 01:48:03;;;;;;;3.87;3.50;;;6.00;79.70;;;;;;5006651;28;20448;-41
2021/03/15 01:50:29;;;;;;;7.63;4.50;;;6.00;80.10;;;;;;5022037;28;20956;-42
2021/03/15 01:52:56;;;;;;;8.37;3.90;;;6.00;80.20;;;;;;5025293;28;20453;-41
2021/03/15 01:55:25;;;;;;;7.27;3.80;;;6.00;80.10;;;;;;5007084;28;20504;-41
2021/03/15 01:57:55;;;;;;;7.03;4.27;;;6.00;80.10;;;;;;5023001;28;21030;-41
2021/03/15 02:00:22;;;;;;;4.53;3.87;;;6.00;80.00;;;;;;5026065;28;20561;-41
2021/03/15 02:02:57;;;;;;;6.17;4.33;;;6.00;80.00;;;;;;5005979;28;20698;-42
2021/03/15 02:05:24;;;;;;;9.33;3.93;;;5.90;80.20;;;;;;5023303;28;20473;-41
2021/03/15 02:07:51;;;;;;;5.00;3.07;;;6.00;80.40;;;;;;4990406;28;20471;-40
2021/03/15 02:10:17;;;;;;;6.90;4.10;;;6.00;80.20;;;;;;5027216;28;20559;-41
2021/03/15 02:12:46;;;;;;;5.10;4.07;;;6.00;80.10;;;;;;5011027;28;20506;-41
2021/03/15 02:15:17;;;;;;;5.73;3.90;;;5.90;80.20;;;;;;5021267;28;20554;-41
2021/03/15 02:18:01;;;;;;;6.50;3.73;;;5.90;80.50;;;;;;5027548;28;20834;-41
2021/03/15 02:20:38;;;;;;;4.77;3.80;;;5.90;80.90;;;;;;5026843;28;20571;-41
2021/03/15 02:23:07;;;;;;;6.83;3.90;;;5.90;80.90;;;;;;5028221;28;20533;-41
2021/03/15 02:26:10;;;;;;;10.23;4.17;;;5.90;81.50;;;;;;5028443;28;20487;-42
2021/03/15 02:29:08;;;;;;;4.43;3.67;;;6.00;81.50;;;;;;5029925;28;20558;-41
2021/03/15 02:31:37;;;;;;;7.93;4.70;;;6.10;81.50;;;;;;5028825;28;20521;-41
2021/03/15 02:34:35;;;;;;;7.07;4.00;;;6.10;81.50;;;;;;5027559;28;20459;-41
2021/03/15 02:37:05;;;;;;;8.03;4.47;;;6.00;81.80;;;;;;5026374;28;20463;-42
2021/03/15 02:39:38;;;;;;;7.53;3.87;;;6.10;82.30;;;;;;5021187;28;20561;-42
2021/03/15 02:42:10;;;;;;;6.80;4.87;;;6.10;82.80;;;;;;5026142;28;21309;-41
2021/03/15 02:44:37;;;;;;;4.80;3.70;;;6.20;82.00;;;;;;5007368;28;20578;-41
2021/03/15 02:47:11;;;;;;;6.03;4.40;;;6.20;81.70;;;;;;4995305;28;20467;-41
2021/03/15 02:49:41;;;;;;;12.30;4.43;;;6.20;81.90;;;;;;5026659;28;20988;-41
2021/03/15 02:52:12;;;;;;;12.93;4.07;;;6.20;82.20;;;;;;5029939;28;20474;-41
2021/03/15 02:54:39;;;;;;;10.10;4.00;;;6.20;82.60;;;;;;5025744;28;20542;-41
2021/03/15 02:57:07;;;;;;;5.20;4.30;;;6.20;82.80;;;;;;4991129;28;20470;-41
2021/03/15 02:59:37;;;;;;;5.70;4.27;;;6.10;83.40;;;;;;5010809;28;20514;-42
2021/03/15 03:02:04;;;;;;;8.43;4.70;;;6.10;83.60;;;;;;5027620;28;20459;-41
2021/03/15 03:04:32;;;;;;;6.67;4.93;;;6.10;84.00;;;;;;5013871;28;20455;-41
2021/03/15 03:07:00;;;;;;;9.40;5.20;;;6.10;83.90;;;;;;5023143;28;20467;-41
2021/03/15 03:09:31;;;;;;;9.00;5.47;;;6.10;84.40;;;;;;5028998;28;20919;-41
2021/03/15 03:11:57;;;;;;;7.13;4.47;;;6.10;84.60;;;;;;5021160;28;20463;-41
2021/03/15 03:14:28;;;;;;;8.03;5.17;;;6.10;84.70;;;;;;5025677;28;20730;-41
2021/03/15 03:16:58;;;;;;;7.83;4.90;;;6.20;84.60;;;;;;5009480;28;21008;-41
2021/03/15 03:19:27;;;;;;;8.33;4.70;;;6.20;84.30;;;;;;5027350;28;20490;-41
2021/03/15 03:21:55;;;;;;;5.07;4.50;;;6.20;84.40;;;;;;5022430;28;20909;-41
2021/03/15 03:24:23;;;;;;;11.40;5.03;;;6.20;84.60;;;;;;5024763;28;20910;-41
2021/03/15 03:26:52;;;;;;;5.50;4.30;;;6.20;84.70;;;;;;5008734;28;20517;-41
2021/03/15 03:29:23;;;;;;;6.27;4.73;;;6.30;84.90;;;;;;5029222;28;20458;-41
2021/03/15 03:31:51;;;;;;;8.40;5.10;;;6.30;84.90;;;;;;5006916;28;20498;-41
2021/03/15 03:34:17;;;;;;;11.87;4.80;;;6.30;84.60;;;;;;5025285;28;20904;-41
2021/03/15 03:36:44;;;;;;;8.20;4.13;;;6.30;84.70;;;;;;5009728;28;20495;-41
2021/03/15 03:39:14;;;;;;;13.23;6.43;;;6.30;84.80;;;;;;5009696;28;20483;-41
2021/03/15 03:41:41;;;;;;;16.17;5.60;;;6.30;84.80;;;;;;5009591;28;20734;-41
2021/03/15 03:44:15;;;;;;;12.07;5.70;;;6.30;84.60;;;;;;5023830;28;20515;-41
2021/03/15 03:46:42;;;;;;;14.23;6.37;;;6.30;84.80;;;;;;5009136;28;20642;-41
2021/03/15 03:49:09;;;;;;;14.77;6.80;;;6.30;84.60;;;;;;5026542;28;20486;-41
2021/03/15 03:51:53;;;;;;;18.47;7.70;;;6.30;84.80;;;;;;5009282;28;20992;-41
2021/03/15 03:54:28;;;;;;;16.73;7.27;;;6.30;84.70;;;;;;5029189;28;21143;-41
2021/03/15 03:57:08;;;;;;;9.87;7.77;;;6.20;84.90;;;;;;5016564;28;20891;-40
2021/03/15 03:59:39;;;;;;;11.90;7.20;;;6.20;85.30;;;;;;5028388;28;20493;-40
2021/03/15 04:02:11;;;;;;;9.87;7.33;;;6.20;85.40;;;;;;5027625;28;21039;-39
2021/03/15 04:04:47;;;;;;;14.23;9.87;;;6.10;85.50;;;;;;5009846;28;20467;-39
2021/03/15 04:07:21;;;;;;;11.57;7.90;;;6.10;86.00;;;;;;5010314;28;20553;-39
2021/03/15 04:09:53;;;;;;;10.73;7.17;;;6.00;85.70;;;;;;5018799;28;20859;-39
2021/03/15 04:12:24;;;;;;;13.03;6.60;;;6.00;86.10;;;;;;5025566;28;20833;-39
2021/03/15 04:14:54;;;;;;;11.20;6.70;;;6.00;86.30;;;;;;5028328;28;20562;-39
2021/03/15 04:17:32;;;;;;;13.40;7.20;;;6.00;85.50;;;;;;5025558;28;20543;-39
2021/03/15 04:20:01;;;;;;;13.57;7.40;;;6.00;85.90;;;;;;5025767;28;20994;-39
2021/03/15 04:22:30;;;;;;;14.17;8.23;;;6.10;85.30;;;;;;5026098;28;20451;-39
2021/03/15 04:25:00;;;;;;;10.43;8.20;;;6.00;86.10;;;;;;5009754;28;20543;-39
2021/03/15 04:27:27;;;;;;;17.53;8.17;;;6.00;86.20;;;;;;5025643;28;20470;-39
2021/03/15 04:29:55;;;;;;;12.57;7.83;;;6.00;86.30;;;;;;5006149;28;20874;-39
2021/03/15 04:32:22;;;;;;;14.73;9.13;;;6.00;86.50;;;;;;5006085;28;20884;-39
2021/03/15 04:34:50;;;;;;;10.77;7.73;;;6.00;86.80;;;;;;5011197;28;20459;-39
2021/03/15 04:37:17;;;;;;;15.20;8.90;;;6.10;86.60;;;;;;5006034;28;20566;-39
2021/03/15 04:39:46;;;;;;;12.57;7.10;;;6.10;86.60;;;;;;5008951;28;20515;-39
2021/03/15 04:42:13;;;;;;;16.00;8.43;;;6.10;86.60;;;;;;5007369;28;20555;-39
2021/03/15 04:44:40;;;;;;;18.80;10.10;;;6.20;86.40;;;;;;5028907;28;20514;-39
2021/03/15 04:47:06;;;;;;;13.07;8.43;;;6.20;86.30;;;;;;5019762;28;20752;-39
2021/03/15 04:49:35;;;;;;;15.40;7.80;;;6.20;86.60;;;;;;5005947;28;20467;-39
2021/03/15 04:52:02;;;;;;;14.33;8.77;;;6.10;86.60;;;;;;5022831;28;21035;-39
2021/03/15 04:54:29;;;;;;;16.10;9.30;;;6.20;86.50;;;;;;5007423;28;20505;-39
2021/03/15 04:56:57;;;;;;;14.50;7.50;;;6.20;86.50;;;;;;4991135;28;20887;-39
2021/03/15 04:59:24;;;;;;;12.97;8.43;;;6.20;86.60;;;;;;5010628;28;20524;-39
2021/03/15 05:01:51;;;;;;;13.33;7.00;;;6.20;86.40;;;;;;4992612;28;20534;-39
2021/03/15 05:04:23;;;;;;;8.43;6.13;;;6.20;86.20;;;;;;5024218;28;20839;-39
2021/03/15 05:06:50;;;;;;;9.23;6.57;;;6.20;85.80;;;;;;5025061;28;20466;-39
2021/03/15 05:09:17;;;;;;;14.43;6.77;;;6.20;86.30;;;;;;5023585;28;20461;-39
2021/03/15 05:11:52;;;;;;;10.97;6.67;;;6.20;86.30;;;;;;5029189;28;20525;-39
2021/03/15 05:14:19;;;;;;;12.87;6.10;;;6.10;86.70;;;;;;5028710;28;20460;-39
2021/03/15 05:16:45;;;;;;;7.93;5.17;;;6.00;86.50;;;;;;5007253;28;20560;-39
2021/03/15 05:19:14;;;;;;;9.47;6.47;;;6.00;86.20;;;;;;5023706;28;20492;-39
2021/03/15 05:21:43;;;;;;;14.60;9.13;;;6.00;85.70;;;;;;5007176;28;20547;-39
2021/03/15 05:24:11;;;;;;;7.60;4.03;;;6.00;86.30;;;;;;5038459;28;20530;-39
2021/03/15 05:26:39;;;;;;;8.43;3.73;;;6.00;86.30;;;;;;5006649;28;20552;-39
2021/03/15 05:29:13;;;;;;;5.67;3.83;;;6.00;86.50;;;;;;5026067;28;20522;-39
2021/03/15 05:31:43;;;;;;;3.33;2.77;;;6.00;86.50;;;;;;5025424;28;20459;-39
2021/03/15 05:34:11;;;;;;;7.50;3.13;;;6.00;86.10;;;;;;5024004;28;20463;-39
2021/03/15 05:36:39;;;;;;;2.90;2.50;;;6.00;85.90;;;;;;5020545;28;20539;-39
2021/03/15 05:39:06;;;;;;;4.37;4.00;;;6.00;85.90;;;;;;5025485;28;20483;-39
2021/03/15 05:41:50;;;;;;;5.07;2.50;;;6.00;86.30;;;;;;5026174;28;20498;-39
2021/03/15 05:44:53;;;;;;;2.97;2.53;;;6.00;86.60;;;;;;5041889;28;20483;-39
2021/03/15 05:47:50;;;;;;;4.57;2.80;;;6.10;86.40;;;;;;5026164;28;20456;-39
2021/03/15 05:51:01;;;;;;;3.97;2.73;;;6.10;86.30;;;;;;5026034;28;21014;-39
2021/03/15 05:53:49;;;;;;;2.87;2.10;;;6.00;86.10;;;;;;5025000;28;20443;-39
2021/03/15 05:56:25;;;;;;;3.07;2.83;;;6.00;85.70;;;;;;5034124;28;20464;-39
2021/03/15 05:59:21;;;;;;;2.67;2.20;;;5.90;86.00;;;;;;5023053;28;20483;-39
2021/03/15 06:02:08;;;;;;;4.80;2.63;;;5.90;85.90;;;;;;5034612;28;20464;-39
2021/03/15 06:05:14;;;;;;;3.63;2.77;;;5.90;85.60;;;;;;5025290;28;20474;-39
2021/03/15 06:07:45;;;;;;;5.23;2.50;;;5.90;85.90;;;;;;5019047;28;20495;-39
2021/03/15 06:10:35;;;;;;;3.10;2.80;;;5.90;86.10;;;;;;5027832;28;20455;-39
2021/03/15 06:13:04;;;;;;;4.90;2.90;;;5.80;86.40;;;;;;5026364;28;20499;-39
2021/03/15 06:15:37;;;;;;;2.93;2.10;;;5.80;86.60;;;;;;5022924;28;20486;-39
2021/03/15 06:18:05;;;;;;;2.10;1.90;;;5.80;86.50;;;;;;5023190;28;20572;-39
2021/03/15 06:20:41;;;;;;;2.27;1.80;;;5.90;86.60;;;;;;5026694;28;20517;-40
2021/03/15 06:23:08;;;;;;;4.73;1.80;;;5.90;86.50;;;;;;5022502;28;20955;-40
2021/03/15 06:25:36;;;;;;;2.87;2.27;;;6.00;86.40;;;;;;5007209;28;20539;-40
2021/03/15 06:28:04;;;;;;;3.13;2.20;;;6.00;86.30;;;;;;5022884;28;20888;-40
2021/03/15 06:30:35;;;;;;;1.63;1.37;;;6.00;85.80;;;;;;5010571;28;20463;-40
2021/03/15 06:33:02;;;;;;;1.70;1.60;;;6.10;85.30;;;;;;5019404;28;20517;-40
2021/03/15 06:35:34;;;;;;;4.13;1.50;;;6.00;85.90;;;;;;5031844;28;20490;-40
2021/03/15 06:38:00;;;;;;;2.27;1.90;;;6.10;86.00;;;;;;5014104;28;20562;-40
2021/03/15 06:40:28;;;;;;;1.63;1.53;;;6.10;85.70;;;;;;5018855;28;20667;-40
2021/03/15 06:42:54;;;;;;;2.07;1.53;;;6.10;85.40;;;;;;5015748;28;20513;-40
2021/03/15 06:45:21;;;;;;;2.20;1.80;;;6.10;85.30;;;;;;5019441;28;20498;-40
2021/03/15 06:47:49;;;;;;;2.37;1.80;;;6.00;85.70;;;;;;5006830;28;20946;-40
2021/03/15 06:50:17;;;;;;;2.13;1.40;;;6.10;85.80;;;;;;5007967;28;20549;-40
2021/03/15 06:52:56;;;;;;;1.93;1.30;;;6.10;86.10;;;;;;5007476;28;20483;-40
2021/03/15 06:55:45;;;;;;;2.70;2.50;;;6.10;85.70;;;;;;5028763;28;20963;-40
2021/03/15 06:58:17;;;;;;;2.10;1.90;;;6.10;85.70;;;;;;5044201;28;20526;-40
2021/03/15 07:00:47;;;;;;;1.50;1.40;;;6.10;85.40;;;;;;5026143;28;20482;-40
2021/03/15 07:03:21;;;;;;;2.40;1.20;;;6.10;85.80;;;;;;5026180;28;20470;-40
2021/03/15 07:06:00;;;;;;;2.87;1.70;;;6.10;85.70;;;;;;5005840;28;20459;-40
2021/03/15 07:08:27;;;;;;;1.33;1.23;;;6.10;85.50;;;;;;5022373;28;20814;-39
2021/03/15 07:10:57;;;;;;;3.80;2.93;;;6.20;85.50;;;;;;5028687;28;20539;-39
2021/03/15 07:13:25;;;;;;;2.57;1.83;;;6.20;86.10;;;;;;4994208;28;21007;-39
2021/03/15 07:15:53;;;;;;;1.97;1.20;;;6.20;85.90;;;;;;5010707;28;20964;-39
2021/03/15 07:18:31;;;;;;;1.37;0.83;;;6.30;85.10;;;;;;5009873;28;20813;-39
2021/03/15 07:21:01;;;;;;;2.03;0.90;;;6.30;85.50;;;;;;5027357;28;20566;-39
2021/03/15 07:23:48;;;;;;;1.13;1.03;;;6.30;85.40;;;;;;5030099;28;20992;-39
2021/03/15 07:26:17;;;;;;;1.23;0.80;;;6.40;85.10;;;;;;5011238;28;21252;-39
2021/03/15 07:28:45;;;;;;;1.43;0.83;;;6.50;84.80;;;;;;5027566;28;20517;-39
2021/03/15 07:31:32;;;;;;;0.83;0.80;;;6.50;84.70;;;;;;5028262;28;20860;-39
2021/03/15 07:34:02;;;;;;;1.20;1.10;;;6.60;84.40;;;;;;5042811;28;20482;-39
2021/03/15 07:36:35;;;;;;;1.10;1.00;;;6.60;84.30;;;;;;5025884;28;20549;-39
2021/03/15 07:39:08;;;;;;;1.07;0.80;;;6.50;84.40;;;;;;5026454;28;20463;-39
2021/03/15 07:41:46;;;;;;;1.57;1.03;;;6.50;84.30;;;;;;5028467;28;20712;-39
2021/03/15 07:44:30;;;;;;;1.30;1.20;;;6.50;84.50;;;;;;5027480;28;20487;-39
2021/03/15 07:47:03;;;;;;;1.30;1.20;;;6.50;84.70;;;;;;5028661;28;20513;-39
2021/03/15 07:49:38;;;;;;;1.80;1.10;;;6.60;84.50;;;;;;5006173;28;20456;-39
2021/03/15 07:52:07;;;;;;;1.47;1.23;;;6.60;84.70;;;;;;5025849;28;20491;-39
2021/03/15 07:54:36;;;;;;;1.20;0.93;;;6.60;85.20;;;;;;5000738;28;20985;-39
2021/03/15 07:57:25;;;;;;;1.90;1.20;;;6.60;85.30;;;;;;5007353;28;20794;-39
2021/03/15 07:59:52;;;;;;;1.33;1.10;;;6.70;84.90;;;;;;5022927;28;20500;-39
2021/03/15 08:02:23;;;;;;;1.43;1.33;;;6.80;85.00;;;;;;5023134;28;20874;-39
2021/03/15 08:04:51;;;;;;;2.33;2.00;;;6.90;84.40;;;;;;5024676;28;20544;-39
2021/03/15 08:07:21;;;;;;;2.77;1.53;;;6.90;84.10;;;;;;5024759;28;20956;-39
2021/03/15 08:09:56;;;;;;;1.60;1.40;;;6.90;84.40;;;;;;5026029;28;20860;-39
2021/03/15 08:12:27;;;;;;;1.63;1.30;;;6.90;84.80;;;;;;5007697;28;20529;-39
2021/03/15 08:15:09;;;;;;;1.47;1.37;;;6.90;85.00;;;;;;5028087;28;20490;-39
2021/03/15 08:17:56;;;;;;;1.10;1.00;;;7.00;85.10;;;;;;5010084;28;20490;-39
2021/03/15 08:20:25;;;;;;;2.03;1.50;;;7.00;85.20;;;;;;5018510;28;20495;-39
2021/03/15 08:22:54;;;;;;;2.60;1.37;;;7.10;85.10;;;;;;5020711;28;21004;-39
2021/03/15 08:25:21;;;;;;;0.97;0.70;;;7.10;84.90;;;;;;5018604;28;21040;-39
2021/03/15 08:27:49;;;;;;;1.00;0.83;;;7.20;84.00;;;;;;5028540;28;20467;-39
2021/03/15 08:30:28;;;;;;;0.70;0.70;;;7.10;84.20;;;;;;5026246;28;20452;-39
2021/03/15 08:32:56;;;;;;;0.70;0.53;;;7.20;84.00;;;;;;5026445;28;20467;-39
2021/03/15 08:35:23;;;;;;;1.43;0.60;;;7.30;83.60;;;;;;5006325;28;20904;-39
2021/03/15 08:37:54;;;;;;;0.77;0.70;;;7.30;83.60;;;;;;5009342;28;20455;-39
2021/03/15 08:40:39;;;;;;;0.50;0.40;;;7.30;83.30;;;;;;5015358;28;20489;-39
2021/03/15 08:43:22;;;;;;;1.73;0.60;;;7.20;82.90;;;;;;5023585;28;20535;-39
2021/03/15 08:46:24;;;;;;;0.40;0.33;;;7.20;83.10;;;;;;5027190;28;20494;-39
2021/03/15 08:48:55;;;;;;;0.77;0.77;;;7.30;83.30;;;;;;4970723;28;20940;-39
2021/03/15 08:51:33;;;;;;;0.93;0.77;;;7.30;83.00;;;;;;5010824;28;20547;-39
2021/03/15 08:54:08;;;;;;;0.60;0.40;;;7.40;82.90;;;;;;5018475;28;20455;-39
2021/03/15 08:56:40;;;;;;;1.17;0.80;;;7.40;82.90;;;;;;5023725;28;20896;-39
2021/03/15 08:59:12;;;;;;;0.60;0.60;;;7.60;82.10;;;;;;5008983;28;20459;-39
2021/03/15 09:01:47;;;;;;;0.80;0.80;;;7.70;83.10;;;;;;5025805;28;20483;-39
2021/03/15 09:04:40;;;;;;;0.70;0.70;;;7.90;81.60;;;;;;5010431;28;20551;-39
2021/03/15 09:07:29;;;;;;;0.60;0.50;;;8.00;80.50;;;;;;5027342;28;20457;-39
2021/03/15 09:10:27;;;;;;;0.60;0.60;;;8.00;80.90;;;;;;5027574;28;20506;-39
2021/03/15 09:13:12;;;;;;;0.90;0.70;;;8.00;81.00;;;;;;5026045;28;20451;-39
2021/03/15 09:15:40;;;;;;;0.70;0.70;;;8.10;81.20;;;;;;5039317;28;20463;-39
2021/03/15 09:18:41;;;;;;;0.70;0.70;;;8.20;81.30;;;;;;5007338;28;20491;-39
2021/03/15 09:21:26;;;;;;;1.03;0.80;;;8.30;80.50;;;;;;5025609;28;20550;-39
2021/03/15 09:23:59;;;;;;;0.80;0.80;;;8.40;77.50;;;;;;5023426;28;20513;-40
2021/03/15 09:26:44;;;;;;;1.47;0.87;;;8.50;77.50;;;;;;5020865;28;21100;-40
2021/03/15 09:29:15;;;;;;;1.40;1.13;;;8.50;76.00;;;;;;5008660;28;20970;-40
2021/03/15 09:32:16;;;;;;;0.77;0.77;;;8.60;76.80;;;;;;5025510;28;20893;-40
2021/03/15 09:34:43;;;;;;;1.53;0.90;;;8.70;76.50;;;;;;5022268;28;20561;-40
2021/03/15 09:37:11;;;;;;;1.43;1.17;;;8.80;75.90;;;;;;5006674;28;20882;-40
2021/03/15 09:39:37;;;;;;;1.70;1.43;;;8.80;76.20;;;;;;5006670;28;20479;-40
2021/03/15 09:42:08;;;;;;;1.10;1.00;;;8.80;75.70;;;;;;5006132;28;20518;-40
2021/03/15 09:44:41;;;;;;;3.33;1.20;;;8.80;74.90;;;;;;5008771;28;20487;-40
2021/03/15 09:47:08;;;;;;;1.17;1.10;;;8.80;75.50;;;;;;5021301;28;20491;-40
2021/03/15 09:49:46;;;;;;;1.30;1.20;;;8.80;74.40;;;;;;5026506;28;20450;-40
2021/03/15 09:52:21;;;;;;;1.93;1.40;;;8.80;74.90;;;;;;5024594;28;20513;-40
2021/03/15 09:54:54;;;;;;;1.73;1.60;;;8.90;73.80;;;;;;5006230;28;20475;-40
2021/03/15 09:57:23;;;;;;;2.43;1.83;;;9.00;73.80;;;;;;5025144;28;20498;-40
2021/03/15 10:00:05;;;;;;;2.10;1.73;;;9.20;74.10;;;;;;5042590;28;20560;-40
2021/03/15 10:02:32;;;;;;;1.87;1.77;;;9.40;73.30;;;;;;5009855;28;20466;-40
2021/03/15 10:05:06;;;;;;;1.80;1.37;;;9.50;70.40;;;;;;5007636;28;20479;-41
2021/03/15 10:07:38;;;;;;;1.50;1.40;;;9.50;69.60;;;;;;5007901;28;20606;-40
2021/03/15 10:10:10;;;;;;;2.07;1.80;;;9.40;69.60;;;;;;5007093;28;20533;-40
2021/03/15 10:12:46;;;;;;;3.03;2.13;;;9.30;69.80;;;;;;5026910;28;20471;-40
2021/03/15 10:15:19;;;;;;;3.00;2.17;;;9.30;70.60;;;;;;5026832;28;20443;-40
2021/03/15 10:17:48;;;;;;;2.20;2.00;;;9.10;70.00;;;;;;5023620;28;20474;-40
2021/03/15 10:20:37;;;;;;;3.53;2.00;;;9.10;70.10;;;;;;5011137;28;20492;-40
2021/03/15 10:23:31;;;;;;;2.20;2.00;;;9.10;70.50;;;;;;5021627;28;20466;-40
2021/03/15 10:26:03;;;;;;;1.90;1.80;;;9.30;71.70;;;;;;5024388;28;20482;-40
2021/03/15 10:28:32;;;;;;;2.13;2.00;;;9.30;70.70;;;;;;5021051;28;20447;-40
2021/03/15 10:31:18;;;;;;;4.40;2.30;;;9.30;69.70;;;;;;5015449;28;20512;-40
2021/03/15 10:33:46;;;;;;;3.90;1.97;;;9.40;69.60;;;;;;5026692;28;20456;-40
2021/03/15 10:36:20;;;;;;;2.20;2.00;;;9.40;68.90;;;;;;5029840;28;20531;-40
2021/03/15 10:38:48;;;;;;;5.33;2.37;;;9.50;69.60;;;;;;5021551;28;20456;-40
2021/03/15 10:41:16;;;;;;;3.47;2.80;;;9.60;68.90;;;;;;5027335;28;20491;-40
2021/03/15 10:43:46;;;;;;;2.60;2.40;;;9.80;68.60;;;;;;5010019;28;21190;-40
2021/03/15 10:46:17;;;;;;;3.00;2.77;;;9.90;69.10;;;;;;5029535;28;21004;-40
2021/03/15 10:48:45;;;;;;;5.27;2.50;;;10.20;69.00;;;;;;5027082;28;20473;-40
2021/03/15 10:51:11;;;;;;;3.70;2.73;;;10.70;65.40;;;;;;5024328;28;20471;-40
2021/03/15 10:53:46;;;;;;;2.60;2.40;;;10.90;65.30;;;;;;5024490;28;20550;-40
2021/03/15 10:56:29;;;;;;;2.97;2.50;;;11.30;65.50;;;;;;5026291;28;20469;-40
2021/03/15 10:58:56;;;;;;;5.23;3.10;;;11.50;63.30;;;;;;5029525;28;20538;-40
2021/03/15 11:01:25;;;;;;;4.03;3.40;;;11.50;62.90;;;;;;5030201;28;21006;-40
2021/03/15 11:03:54;;;;;;;3.10;2.70;;;11.50;62.10;;;;;;5026130;28;20847;-40
2021/03/15 11:06:27;;;;;;;5.20;2.87;;;11.40;63.10;;;;;;5024259;28;20451;-40
2021/03/15 11:09:03;;;;;;;3.63;3.20;;;11.50;63.40;;;;;;5028515;28;20998;-40
2021/03/15 11:11:32;;;;;;;4.47;2.87;;;11.40;62.90;;;;;;5025538;28;20529;-40
2021/03/15 11:14:08;;;;;;;4.27;2.90;;;11.60;62.50;;;;;;5025865;28;20538;-40
2021/03/15 11:16:35;;;;;;;2.87;2.60;;;11.60;61.70;;;;;;5013647;28;20459;-40
2021/03/15 11:19:08;;;;;;;5.07;3.20;;;11.60;62.30;;;;;;5010717;28;20506;-40
2021/03/15 11:21:36;;;;;;;4.20;2.37;;;11.70;62.50;;;;;;5027935;28;20526;-40
2021/03/15 11:24:04;;;;;;;5.40;2.63;;;12.00;61.30;;;;;;5014083;28;20876;-40
2021/03/15 11:26:54;;;;;;;5.70;3.10;;;12.10;60.70;;;;;;4994748;28;20912;-40
2021/03/15 11:29:37;;;;;;;4.87;2.93;;;12.20;60.60;;;;;;5029879;28;20491;-40
2021/03/15 11:32:12;;;;;;;2.70;2.50;;;12.10;60.80;;;;;;5032083;28;20483;-40
2021/03/15 11:34:47;;;;;;;2.37;2.07;;;12.00;60.20;;;;;;5010276;28;20452;-40
2021/03/15 11:37:13;;;;;;;4.77;2.57;;;11.80;58.20;;;;;;5043775;28;20483;-40
2021/03/15 11:39:40;;;;;;;3.40;2.30;;;11.50;57.10;;;;;;5026432;28;20631;-40
2021/03/15 11:42:26;;;;;;;4.27;2.43;;;11.40;58.50;;;;;;5010496;28;20459;-40
2021/03/15 11:45:01;;;;;;;4.10;2.47;;;11.20;58.90;;;;;;5020163;28;20574;-40
2021/03/15 11:47:27;;;;;;;3.97;2.77;;;11.00;59.80;;;;;;5025701;28;20945;-40
2021/03/15 11:49:57;;;;;;;3.87;2.93;;;10.90;60.80;;;;;;5008149;28;20466;-40
2021/03/15 11:52:29;;;;;;;3.17;2.93;;;10.90;61.60;;;;;;5024889;28;20467;-40
2021/03/15 11:54:58;;;;;;;2.83;2.50;;;10.80;61.10;;;;;;5019301;28;21061;-40
2021/03/15 11:57:25;;;;;;;3.73;2.70;;;10.80;62.00;;;;;;5016671;28;20471;-40
2021/03/15 11:59:54;;;;;;;2.90;2.47;;;10.60;63.60;;;;;;5008218;28;20522;-40
2021/03/15 12:02:22;;;;;;;3.60;2.40;;;10.40;64.80;;;;;;5023491;28;20464;-40
2021/03/15 12:04:49;;;;;;;4.13;2.87;;;10.20;66.20;;;;;;5005178;28;20471;-40
2021/03/15 12:07:15;;;;;;;3.40;2.93;;;10.00;67.70;;;;;;5025379;28;20535;-40
2021/03/15 12:09:41;;;;;;;5.07;3.20;;;9.70;69.70;;;;;;5024616;28;20459;-40
2021/03/15 12:12:11;;;;;;;5.23;3.50;;;9.60;70.20;;;;;;5025603;28;20448;-40
2021/03/15 12:14:38;;;;;;;12.80;4.33;;;9.50;70.70;;;;;;5006132;28;20463;-40
2021/03/15 12:17:04;;;;;;;5.80;3.90;;;9.40;70.90;;;;;;5025082;28;20554;-40
2021/03/15 12:19:30;;;;;;;3.57;3.27;;;9.40;71.10;;;;;;5025511;28;20540;-40
2021/03/15 12:22:00;;;;;;;6.63;3.87;;;9.40;71.20;;;;;;5025991;28;20451;-40
2021/03/15 12:24:27;;;;;;;4.40;3.10;;;9.50;71.00;;;;;;5009085;28;20529;-40
2021/03/15 12:26:53;;;;;;;4.47;4.13;;;9.70;70.30;;;;;;5009322;28;20444;-40
2021/03/15 12:29:19;;;;;;;5.33;4.30;;;9.90;69.10;;;;;;5025761;28;20464;-40
2021/03/15 12:31:46;;;;;;;4.20;3.50;;;10.10;68.30;;;;;;5009455;28;20467;-40
2021/03/15 12:34:12;;;;;;;4.23;3.37;;;10.30;66.50;;;;;;5006206;28;20459;-40
2021/03/15 12:36:38;;;;;;;3.00;2.70;;;10.30;65.80;;;;;;5025384;28;20452;-40
2021/03/15 12:39:05;;;;;;;4.10;2.83;;;10.50;67.50;;;;;;5025651;28;20528;-40
2021/03/15 12:41:34;;;;;;;3.33;2.50;;;10.70;66.60;;;;;;5023807;28;21081;-40
2021/03/15 12:44:03;;;;;;;3.63;2.70;;;10.80;65.20;;;;;;5024454;28;20514;-40
2021/03/15 12:46:31;;;;;;;3.00;2.63;;;10.90;62.90;;;;;;5024743;28;20457;-40
2021/03/15 12:48:58;;;;;;;3.40;2.47;;;11.00;62.10;;;;;;5008466;28;20466;-40
2021/03/15 12:51:24;;;;;;;3.20;2.90;;;11.10;63.00;;;;;;5004288;28;20449;-40
2021/03/15 12:53:51;;;;;;;3.50;2.47;;;11.30;62.80;;;;;;5020972;28;20540;-40
2021/03/15 12:56:17;;;;;;;4.30;2.67;;;11.40;60.70;;;;;;5023684;28;20514;-40
2021/03/15 12:58:43;;;;;;;3.13;2.77;;;11.50;61.30;;;;;;5021549;28;20827;-40
2021/03/15 13:01:11;;;;;;;3.30;2.20;;;11.40;61.40;;;;;;5004770;28;21113;-40
2021/03/15 13:03:41;;;;;;;3.47;1.50;;;11.30;63.10;;;;;;4990831;28;20545;-41
2021/03/15 13:06:08;;;;;;;2.50;1.60;;;11.20;64.50;;;;;;5023552;28;20877;-40
2021/03/15 13:08:38;;;;;;;4.83;1.77;;;11.00;63.90;;;;;;5023059;28;20484;-40
2021/03/15 13:11:04;;;;;;;4.43;2.53;;;11.00;62.80;;;;;;5007696;28;20533;-40
2021/03/15 13:13:30;;;;;;;3.27;2.57;;;11.10;63.40;;;;;;5023641;28;20459;-40
2021/03/15 13:16:12;;;;;;;4.70;2.43;;;11.20;64.00;;;;;;5023499;28;20459;-40
2021/03/15 13:18:38;;;;;;;5.03;3.67;;;11.20;64.60;;;;;;5022828;28;21006;-40